Time;durP1;ratioP1;P1;durP2;ratioP2;P2;SDS_P1;SDS_P2;PMS_P1;PMS_P2;Temp;Humidity;BMP_temperature;BMP_pressure;BME280_temperature;BME280_humidity;BME280_pressure;Samples;Min_cycle;Max_cycle;Signal;HPM_P1;HPM_P2
2021/12/15 00:02:12;;;;;;;;;;;;;;;24.21;17.39;100203.91;5035452;28;19923;-74
2021/12/15 00:04:37;;;;;;;;;;;;;;;24.21;17.19;100201.97;5035408;28;19925;-74
2021/12/15 00:07:03;;;;;;;;;;;;;;;24.18;17.24;100203.38;5035603;28;19917;-74
2021/12/15 00:09:29;;;;;;;;;;;;;;;24.17;17.34;100199.00;5035307;28;19917;-74
2021/12/15 00:11:54;;;;;;;;;;;;;;;24.19;17.29;100202.25;5035562;28;19923;-74
2021/12/15 00:14:20;;;;;;;;;;;;;;;24.19;17.31;100209.63;5035311;28;20015;-74
2021/12/15 00:16:45;;;;;;;;;;;;;;;24.18;17.34;100203.38;5034981;28;20020;-74
2021/12/15 00:19:10;;;;;;;;;;;;;;;24.18;17.15;100206.09;5035219;28;19917;-74
2021/12/15 00:21:35;;;;;;;;;;;;;;;24.17;17.15;100203.66;5043806;28;19924;-74
2021/12/15 00:24:03;;;;;;;;;;;;;;;24.17;17.44;100209.91;5055451;28;19917;-74
2021/12/15 00:26:28;;;;;;;;;;;;;;;24.17;17.38;100203.66;5055923;28;20059;-74
2021/12/15 00:28:53;;;;;;;;;;;;;;;24.15;17.23;100212.13;5055289;28;20012;-74
2021/12/15 00:31:18;;;;;;;;;;;;;;;24.15;17.25;100200.38;5054921;28;19916;-74
2021/12/15 00:33:44;;;;;;;;;;;;;;;24.15;17.18;100201.19;5054983;28;19923;-74
2021/12/15 00:36:09;;;;;;;;;;;;;;;24.14;17.27;100202.28;5054953;28;20366;-74
2021/12/15 00:38:35;;;;;;;;;;;;;;;24.16;17.27;100197.38;5054707;28;19940;-74
2021/12/15 00:41:00;;;;;;;;;;;;;;;24.15;17.12;100192.19;5054919;28;19967;-74
2021/12/15 00:43:25;;;;;;;;;;;;;;;24.14;17.29;100188.63;5054968;28;20359;-74
2021/12/15 00:45:50;;;;;;;;;;;;;;;24.14;17.31;100177.72;5054828;28;20381;-74
2021/12/15 00:48:16;;;;;;;;;;;;;;;24.13;17.36;100176.09;5054720;28;19917;-74
2021/12/15 00:50:41;;;;;;;;;;;;;;;24.13;17.40;100178.81;5054471;28;19924;-74
2021/12/15 00:53:06;;;;;;;;;;;;;;;24.14;17.35;100171.44;5054287;28;20386;-74
2021/12/15 00:55:32;;;;;;;;;;;;;;;24.12;17.25;100162.72;5055118;28;19924;-74
2021/12/15 00:57:57;;;;;;;;;;;;;;;24.13;17.16;100161.63;5054428;28;20279;-74
2021/12/15 01:00:30;;;;;;;;;;;;;;;24.11;17.29;100161.09;5054322;28;19917;-74
2021/12/15 01:02:56;;;;;;;;;;;;;;;24.13;17.27;100162.44;5054453;28;19917;-74
2021/12/15 01:05:21;;;;;;;;;;;;;;;24.11;17.26;100161.91;5053344;28;19976;-74
2021/12/15 01:07:47;;;;;;;;;;;;;;;24.12;17.24;100169.00;5054003;28;20355;-74
2021/12/15 01:10:19;;;;;;;;;;;;;;;24.11;17.36;100170.09;5053311;28;19928;-74
2021/12/15 01:20:32;;;;;;;;;;;;;;;24.10;17.22;100163.00;5054369;28;19987;-74
2021/12/15 01:22:58;;;;;;;;;;;;;;;24.10;17.28;100164.94;5035996;28;20005;-74
2021/12/15 01:25:28;;;;;;;;;;;;;;;24.10;17.29;100168.47;5033952;28;20008;-74
2021/12/15 01:27:54;;;;;;;;;;;;;;;24.09;17.26;100172.28;5033892;28;20443;-75
2021/12/15 01:30:20;;;;;;;;;;;;;;;24.11;17.06;100166.53;5034409;28;19960;-75
2021/12/15 01:32:46;;;;;;;;;;;;;;;24.10;17.08;100163.00;5034485;28;19939;-74
2021/12/15 01:35:11;;;;;;;;;;;;;;;24.09;17.42;100161.38;5034342;28;20375;-74
2021/12/15 01:37:36;;;;;;;;;;;;;;;24.09;17.38;100158.63;5034198;28;19917;-74
2021/12/15 01:40:03;;;;;;;;;;;;;;;24.09;17.37;100166.03;5034094;28;20287;-74
2021/12/15 01:42:31;;;;;;;;;;;;;;;24.07;17.18;100160.84;5033891;28;20020;-74
2021/12/15 01:47:40;;;;;;;;;;;;;;;24.06;17.14;100153.75;5033891;28;20390;-75
2021/12/15 01:50:05;;;;;;;;;;;;;;;24.08;17.40;100150.75;5033821;28;19918;-75
2021/12/15 01:52:32;;;;;;;;;;;;;;;24.07;17.19;100155.38;5033617;28;20023;-74
2021/12/15 01:54:58;;;;;;;;;;;;;;;24.07;17.24;100155.38;5033905;28;19954;-74
2021/12/15 01:57:29;;;;;;;;;;;;;;;24.06;17.06;100152.94;5033840;28;19921;-74
2021/12/15 01:59:55;;;;;;;;;;;;;;;24.06;17.20;100159.22;5033807;28;19917;-74
2021/12/15 02:02:20;;;;;;;;;;;;;;;24.05;17.37;100160.31;5033713;28;19927;-74
2021/12/15 02:04:45;;;;;;;;;;;;;;;24.06;17.21;100172.03;5037749;28;19948;-74
2021/12/15 02:07:14;;;;;;;;;;;;;;;24.06;17.29;100167.41;5037794;28;19917;-74
2021/12/15 02:12:11;;;;;;;;;;;;;;;24.04;17.26;100175.03;5037680;28;19921;-74
2021/12/15 02:14:36;;;;;;;;;;;;;;;24.05;17.29;100182.16;5037569;28;19928;-74
2021/12/15 02:17:01;;;;;;;;;;;;;;;24.05;17.52;100195.00;5036010;28;19925;-74
2021/12/15 02:19:27;;;;;;;;;;;;;;;24.04;17.50;100188.69;5037779;28;19917;-74
2021/12/15 02:21:53;;;;;;;;;;;;;;;24.05;17.43;100195.81;5045112;28;19917;-74
2021/12/15 02:24:18;;;;;;;;;;;;;;;24.05;17.51;100195.81;5057460;28;19924;-74
2021/12/15 02:26:49;;;;;;;;;;;;;;;24.06;17.30;100188.41;5057235;28;20402;-74
2021/12/15 02:29:15;;;;;;;;;;;;;;;24.05;17.31;100184.88;5057526;28;19917;-74
2021/12/15 02:34:43;;;;;;;;;;;;;;;24.04;17.34;100193.34;5057826;28;19923;-74
2021/12/15 02:37:17;;;;;;;;;;;;;;;24.04;17.37;100196.88;5057194;28;19979;-74
2021/12/15 02:39:43;;;;;;;;;;;;;;;24.03;17.45;100191.72;5057398;28;19970;-74
2021/12/15 02:42:09;;;;;;;;;;;;;;;24.02;17.14;100188.16;5057356;28;19917;-74
2021/12/15 02:44:34;;;;;;;;;;;;;;;24.02;17.33;100192.81;5057468;28;19916;-74
2021/12/15 02:46:59;;;;;;;;;;;;;;;24.01;17.38;100194.75;5057644;28;19924;-74
2021/12/15 02:49:27;;;;;;;;;;;;;;;24.02;17.26;100190.91;5057694;28;19923;-74
2021/12/15 02:51:52;;;;;;;;;;;;;;;24.01;17.20;100192.00;5062343;28;19916;-75
2021/12/15 02:54:18;;;;;;;;;;;;;;;24.02;17.21;100192.81;5070462;28;20011;-74
2021/12/15 02:56:43;;;;;;;;;;;;;;;24.02;17.14;100196.34;5066740;28;19916;-74
2021/12/15 02:59:10;;;;;;;;;;;;;;;24.02;17.36;100193.63;5066992;28;19918;-74
2021/12/15 03:04:28;;;;;;;;;;;;;;;24.02;17.37;100179.97;5065175;28;19920;-74
2021/12/15 03:07:00;;;;;;;;;;;;;;;24.00;17.29;100171.25;5064220;28;20381;-74
2021/12/15 03:15:19;;;;;;;;;;;;;;;23.99;17.44;100175.06;5059974;28;20363;-74
2021/12/15 03:17:39;;;;;;;;;;;;;;;23.99;17.38;100164.16;5056924;28;19943;-74
2021/12/15 03:20:04;;;;;;;;;;;;;;;23.97;17.46;100164.47;5056661;28;20351;-74
2021/12/15 03:22:29;;;;;;;;;;;;;;;23.98;17.27;100162.53;5044702;28;20003;-74
2021/12/15 03:24:55;;;;;;;;;;;;;;;23.98;17.45;100173.47;5035577;28;19917;-74
2021/12/15 03:27:27;;;;;;;;;;;;;;;23.98;17.51;100174.28;5036746;28;20359;-74
2021/12/15 03:35:45;;;;;;;;;;;;;;;23.99;17.12;100177.81;5036821;28;19924;-74
2021/12/15 03:38:08;;;;;;;;;;;;;;;23.97;17.07;100167.19;5036269;28;20335;-75
2021/12/15 03:40:39;;;;;;;;;;;;;;;23.98;17.11;100165.28;5035834;28;19969;-75
2021/12/15 03:43:05;;;;;;;;;;;;;;;23.98;17.37;100157.09;5036306;28;19924;-74
2021/12/15 03:45:41;;;;;;;;;;;;;;;23.98;17.27;100157.09;5036366;28;19920;-75
2021/12/15 03:48:08;;;;;;;;;;;;;;;23.97;17.35;100160.91;5035223;28;19917;-74
2021/12/15 03:50:34;;;;;;;;;;;;;;;23.97;17.31;100174.56;5036395;28;19925;-74
2021/12/15 03:52:59;;;;;;;;;;;;;;;23.98;17.37;100170.72;5036851;28;20310;-74
2021/12/15 03:55:26;;;;;;;;;;;;;;;23.97;17.08;100174.56;5035836;28;19917;-74
2021/12/15 03:57:51;;;;;;;;;;;;;;;23.98;17.28;100170.72;5036012;28;19917;-74
2021/12/15 04:00:17;;;;;;;;;;;;;;;23.95;17.33;100166.63;5036290;28;19917;-74
2021/12/15 04:02:42;;;;;;;;;;;;;;;23.97;17.29;100169.09;5035643;28;19920;-74
2021/12/15 04:05:08;;;;;;;;;;;;;;;24.00;17.11;100171.25;5034557;28;19917;-74
2021/12/15 04:07:33;;;;;;;;;;;;;;;24.01;17.23;100162.00;5036216;28;20314;-74
2021/12/15 04:09:59;;;;;;;;;;;;;;;24.02;17.14;100171.78;5036153;28;19917;-75
2021/12/15 04:12:25;;;;;;;;;;;;;;;24.05;17.31;100171.22;5036384;28;19917;-75
2021/12/15 04:15:17;;;;;;;;;;;;;;;24.06;17.23;100159.22;5036249;28;20354;-75
2021/12/15 04:17:41;;;;;;;;;;;;;;;24.08;17.10;100156.22;5035838;28;20379;-75
2021/12/15 04:20:08;;;;;;;;;;;;;;;24.10;17.18;100149.34;5036676;28;19924;-75
2021/12/15 04:22:33;;;;;;;;;;;;;;;24.13;17.22;100158.91;5047284;28;19917;-75
2021/12/15 04:25:04;;;;;;;;;;;;;;;24.15;17.23;100149.31;5055981;28;19923;-75
2021/12/15 04:27:30;;;;;;;;;;;;;;;24.18;17.24;100142.47;5054659;28;19936;-75
2021/12/15 04:29:57;;;;;;;;;;;;;;;24.21;17.00;100138.38;5055569;28;20566;-75
2021/12/15 04:32:24;;;;;;;;;;;;;;;24.23;16.87;100125.25;5055074;28;20275;-75
2021/12/15 04:34:50;;;;;;;;;;;;;;;24.25;16.80;100133.94;5055394;28;19924;-74
2021/12/15 04:37:15;;;;;;;;;;;;;;;24.27;16.85;100137.25;5054975;28;19928;-75
2021/12/15 04:39:40;;;;;;;;;;;;;;;24.21;17.14;100132.91;5054886;28;19931;-74
2021/12/15 04:42:06;;;;;;;;;;;;;;;24.30;17.14;100132.03;5055131;28;19924;-74
2021/12/15 04:44:31;;;;;;;;;;;;;;;24.34;16.97;100132.25;5055034;28;20035;-74
2021/12/15 04:47:00;;;;;;;;;;;;;;;24.38;17.10;100122.38;5054810;28;19917;-74
2021/12/15 04:49:26;;;;;;;;;;;;;;;24.40;17.17;100114.72;5054533;28;19924;-74
2021/12/15 04:51:51;;;;;;;;;;;;;;;24.44;17.02;100115.78;5054765;28;19917;-74
2021/12/15 04:54:17;;;;;;;;;;;;;;;24.47;17.00;100112.47;5054757;28;19920;-74
2021/12/15 04:56:42;;;;;;;;;;;;;;;24.50;16.83;100106.44;5054199;28;20087;-73
2021/12/15 04:59:07;;;;;;;;;;;;;;;24.50;16.76;100120.09;5055745;28;20304;-75
2021/12/15 05:01:32;;;;;;;;;;;;;;;24.54;16.73;100121.19;5055900;28;19916;-74
2021/12/15 05:03:58;;;;;;;;;;;;;;;24.57;16.85;100124.44;5055349;28;20050;-73
2021/12/15 05:06:23;;;;;;;;;;;;;;;24.61;16.94;100133.69;5054282;28;20011;-74
2021/12/15 05:08:48;;;;;;;;;;;;;;;24.66;16.75;100133.63;5054038;28;19935;-74
2021/12/15 05:11:14;;;;;;;;;;;;;;;24.70;16.84;100134.72;5054561;28;19967;-74
2021/12/15 05:13:39;;;;;;;;;;;;;;;24.79;16.59;100135.69;5054767;28;20351;-74
2021/12/15 05:16:05;;;;;;;;;;;;;;;24.83;16.35;100120.34;5053239;28;19964;-74
2021/12/15 05:18:30;;;;;;;;;;;;;;;24.87;16.66;100107.75;5056141;28;19963;-74
2021/12/15 05:20:58;;;;;;;;;;;;;;;24.98;16.31;100110.38;5058911;28;19917;-73
2021/12/15 05:23:28;;;;;;;;;;;;;;;25.04;16.51;100100.97;5058608;28;19917;-74
2021/12/15 05:25:53;;;;;;;;;;;;;;;25.05;16.51;100092.50;5057393;28;19917;-74
2021/12/15 05:28:19;;;;;;;;;;;;;;;25.11;16.29;100098.69;5056287;28;19923;-74
2021/12/15 05:30:44;;;;;;;;;;;;;;;25.12;16.08;100103.06;5056419;28;19964;-74
2021/12/15 05:33:09;;;;;;;;;;;;;;;25.17;16.04;100103.00;5056092;28;19916;-74
2021/12/15 05:35:36;;;;;;;;;;;;;;;25.19;16.20;100100.78;5057190;28;20363;-74
2021/12/15 05:38:01;;;;;;;;;;;;;;;25.22;16.15;100102.94;5054966;28;19963;-74
2021/12/15 05:40:27;;;;;;;;;;;;;;;25.25;16.10;100096.06;5055215;28;19917;-73
2021/12/15 05:42:56;;;;;;;;;;;;;;;25.32;16.26;100101.22;5052671;28;19917;-72
2021/12/15 05:45:21;;;;;;;;;;;;;;;25.35;16.19;100111.56;5054086;28;20007;-72
2021/12/15 05:47:46;;;;;;;;;;;;;;;25.39;16.00;100112.59;5053652;28;19956;-72
2021/12/15 05:50:12;;;;;;;;;;;;;;;25.42;16.05;100106.56;5053910;28;19917;-71
2021/12/15 05:52:37;;;;;;;;;;;;;;;25.44;15.83;100104.34;5054100;28;19927;-72
2021/12/15 05:55:04;;;;;;;;;;;;;;;25.51;16.16;100115.75;5054692;28;20370;-71
2021/12/15 05:57:29;;;;;;;;;;;;;;;25.52;16.02;100117.38;5054924;28;19917;-72
2021/12/15 05:59:54;;;;;;;;;;;;;;;25.53;16.16;100119.00;5054374;28;20359;-71
2021/12/15 06:02:20;;;;;;;;;;;;;;;25.57;16.14;100111.00;5054765;28;20290;-71
2021/12/15 06:04:45;;;;;;;;;;;;;;;25.59;15.74;100101.38;5054791;28;19950;-74
2021/12/15 06:07:10;;;;;;;;;;;;;;;25.66;15.86;100118.28;5055433;28;20373;-73
2021/12/15 06:09:35;;;;;;;;;;;;;;;25.67;16.01;100108.94;5054720;28;20339;-72
2021/12/15 06:12:01;;;;;;;;;;;;;;;25.66;15.95;100109.25;5053931;28;19923;-73
2021/12/15 06:14:28;;;;;;;;;;;;;;;25.75;15.90;100110.22;5055812;28;19980;-71
2021/12/15 06:16:54;;;;;;;;;;;;;;;25.74;15.71;100110.50;5053533;28;20004;-72
2021/12/15 06:19:19;;;;;;;;;;;;;;;25.77;15.74;100102.53;5053562;28;19917;-72
2021/12/15 06:21:45;;;;;;;;;;;;;;;25.77;15.54;100101.72;5051394;28;19924;-72
2021/12/15 06:24:10;;;;;;;;;;;;;;;25.86;15.50;100099.94;5033712;28;19921;-72
2021/12/15 06:26:35;;;;;;;;;;;;;;;25.84;15.62;100115.84;5033528;28;19921;-72
2021/12/15 06:29:00;;;;;;;;;;;;;;;25.82;15.88;100110.66;5033318;28;20051;-72
2021/12/15 06:31:26;;;;;;;;;;;;;;;25.89;15.63;100110.28;5031786;28;19917;-72
2021/12/15 06:33:51;;;;;;;;;;;;;;;25.95;15.40;100102.84;5032684;28;19917;-72
2021/12/15 06:36:20;;;;;;;;;;;;;;;25.94;15.45;100104.75;5032573;28;19936;-71
2021/12/15 06:38:46;;;;;;;;;;;;;;;26.03;15.32;100097.50;5033147;28;19925;-71
2021/12/15 06:41:12;;;;;;;;;;;;;;;26.01;15.44;100085.22;5032984;28;19917;-72
2021/12/15 06:43:39;;;;;;;;;;;;;;;26.08;15.23;100063.75;5033028;28;20291;-72
2021/12/15 06:46:26;;;;;;;;;;;;;;;26.14;15.24;100072.69;5032918;28;19979;-71
2021/12/15 06:59:45;;;;;;;;;;;;;;;26.14;15.19;100078.97;5037701;28;19991;-72
2021/12/15 07:02:10;;;;;;;;;;;;;;;26.18;15.20;100084.66;5036937;28;20363;-72
2021/12/15 07:04:35;;;;;;;;;;;;;;;26.20;15.24;100082.44;5036984;28;19937;-72
2021/12/15 07:07:02;;;;;;;;;;;;;;;26.29;15.25;100080.63;5036814;28;20008;-72
2021/12/15 07:09:27;;;;;;;;;;;;;;;26.33;15.21;100078.91;5037008;28;19945;-72
2021/12/15 07:11:52;;;;;;;;;;;;;;;26.18;15.42;100071.78;5038094;28;20351;-72
2021/12/15 07:14:18;;;;;;;;;;;;;;;26.29;15.15;100069.69;5036791;28;19971;-72
2021/12/15 07:16:46;;;;;;;;;;;;;;;26.36;15.34;100055.59;5036371;28;20410;-72
2021/12/15 07:21:55;;;;;;;;;;;;;;;26.42;15.06;100048.91;5037442;28;19918;-72
2021/12/15 07:24:21;;;;;;;;;;;;;;;26.47;15.19;100042.53;5057233;28;19917;-73
2021/12/15 07:26:47;;;;;;;;;;;;;;;26.60;14.81;100037.06;5057234;28;19924;-73
2021/12/15 07:29:12;;;;;;;;;;;;;;;26.61;14.98;100032.38;5056654;28;19917;-73
2021/12/15 07:31:37;;;;;;;;;;;;;;;26.66;14.99;100040.53;5056672;28;20339;-72
2021/12/15 07:34:03;;;;;;;;;;;;;;;26.67;15.09;100042.16;5056068;28;19917;-72
2021/12/15 07:36:28;;;;;;;;;;;;;;;26.74;15.17;100047.25;5056203;28;19935;-73
2021/12/15 07:38:55;;;;;;;;;;;;;;;26.71;15.27;100040.44;5055772;28;19923;-73
2021/12/15 07:41:36;;;;;;;;;;;;;;;26.54;15.40;100034.72;5055978;28;19967;-73
2021/12/15 07:44:02;;;;;;;;;;;;;;;26.60;15.29;100042.53;5056811;28;19928;-73
2021/12/15 07:46:28;;;;;;;;;;;;;;;26.68;15.12;100029.25;5055465;28;19952;-74
2021/12/15 07:48:54;;;;;;;;;;;;;;;26.61;15.28;100029.63;5055340;28;19963;-73
2021/12/15 07:51:19;;;;;;;;;;;;;;;26.72;15.23;100031.09;5055594;28;20007;-73
2021/12/15 07:53:44;;;;;;;;;;;;;;;26.74;15.19;100031.59;5055358;28;20372;-72
2021/12/15 07:56:10;;;;;;;;;;;;;;;26.86;15.09;100044.81;5055299;28;19957;-72
2021/12/15 07:58:35;;;;;;;;;;;;;;;26.82;15.28;100035.56;5055474;28;20282;-74
2021/12/15 08:01:02;;;;;;;;;;;;;;;26.86;14.99;100039.31;5055107;28;19928;-74
2021/12/15 08:03:28;;;;;;;;;;;;;;;26.89;15.05;100043.38;5054159;28;19917;-74
2021/12/15 08:05:53;;;;;;;;;;;;;;;26.87;15.15;100023.66;5056071;28;19924;-74
2021/12/15 08:08:19;;;;;;;;;;;;;;;27.06;15.09;100032.59;5055539;28;19916;-75
2021/12/15 08:10:45;;;;;;;;;;;;;;;26.95;15.18;100023.75;5055250;28;19948;-76
2021/12/15 08:13:10;;;;;;;;;;;;;;;27.02;14.93;100026.09;5055057;28;19952;-73
2021/12/15 08:15:35;;;;;;;;;;;;;;;26.97;14.94;100023.47;5055006;28;19924;-75
2021/12/15 08:18:00;;;;;;;;;;;;;;;26.98;14.97;100028.66;5055679;28;19921;-74
2021/12/15 08:20:27;;;;;;;;;;;;;;;26.98;15.09;100027.84;5055131;28;19916;-72
2021/12/15 08:22:52;;;;;;;;;;;;;;;26.95;15.06;100026.50;5055116;28;20310;-73
2021/12/15 08:25:18;;;;;;;;;;;;;;;27.06;15.14;100027.13;5055085;28;19921;-73
2021/12/15 08:27:43;;;;;;;;;;;;;;;27.05;15.24;100024.69;5054771;28;19920;-72
2021/12/15 08:30:11;;;;;;;;;;;;;;;27.08;15.34;100024.88;5054453;28;19923;-72
2021/12/15 08:32:36;;;;;;;;;;;;;;;27.12;15.15;100025.88;5054205;28;19923;-72
2021/12/15 08:35:02;;;;;;;;;;;;;;;27.14;15.12;100023.63;5054779;28;19966;-73
2021/12/15 08:37:27;;;;;;;;;;;;;;;27.18;15.01;100018.34;5054165;28;20023;-73
2021/12/15 08:39:52;;;;;;;;;;;;;;;27.15;15.38;100025.28;5053830;28;19917;-71
2021/12/15 08:42:17;;;;;;;;;;;;;;;27.23;15.13;100014.69;5054308;28;19928;-72
2021/12/15 08:44:43;;;;;;;;;;;;;;;27.16;15.10;100009.63;5055138;28;20363;-70
2021/12/15 08:47:08;;;;;;;;;;;;;;;27.15;15.23;100006.06;5056486;28;19916;-70
2021/12/15 08:49:33;;;;;;;;;;;;;;;27.17;15.07;99995.59;5055265;28;20375;-71
2021/12/15 08:51:59;;;;;;;;;;;;;;;27.20;15.17;99996.09;5054172;28;20010;-71
2021/12/15 08:54:24;;;;;;;;;;;;;;;27.20;15.41;99985.13;5053747;28;19960;-70
2021/12/15 08:56:49;;;;;;;;;;;;;;;27.17;15.26;99979.13;5053729;28;19924;-70
2021/12/15 08:59:15;;;;;;;;;;;;;;;27.21;15.24;99967.56;5054580;28;20054;-72
2021/12/15 09:01:40;;;;;;;;;;;;;;;27.29;15.07;99972.34;5054030;28;20235;-71
2021/12/15 09:04:06;;;;;;;;;;;;;;;27.30;15.16;99980.28;5056656;28;19916;-72
2021/12/15 09:06:31;;;;;;;;;;;;;;;27.09;15.47;99977.13;5055791;28;20047;-72
2021/12/15 09:08:56;;;;;;;;;;;;;;;27.16;15.20;99980.28;5054441;28;19961;-72
2021/12/15 09:11:22;;;;;;;;;;;;;;;27.16;15.14;99972.03;5054461;28;20381;-70
2021/12/15 09:13:50;;;;;;;;;;;;;;;27.19;15.15;99976.09;5057872;28;19917;-71
2021/12/15 09:16:15;;;;;;;;;;;;;;;27.17;15.40;99968.16;5056909;28;19921;-70
2021/12/15 09:18:41;;;;;;;;;;;;;;;27.18;15.26;99968.97;5056054;28;20347;-70
2021/12/15 09:21:06;;;;;;;;;;;;;;;27.24;15.07;99955.97;5055336;28;19917;-70
2021/12/15 09:23:32;;;;;;;;;;;;;;;27.13;15.22;99961.69;5043230;28;19921;-70
2021/12/15 09:25:57;;;;;;;;;;;;;;;27.20;15.14;99957.69;5033960;28;20337;-70
2021/12/15 09:28:24;;;;;;;;;;;;;;;27.30;14.98;99949.25;5036034;28;19917;-70
2021/12/15 09:30:49;;;;;;;;;;;;;;;27.27;15.14;99939.69;5034736;28;20054;-70
2021/12/15 09:33:19;;;;;;;;;;;;;;;27.29;14.98;99936.69;5034223;28;19997;-70
2021/12/15 09:35:44;;;;;;;;;;;;;;;27.30;14.80;99932.78;5033312;28;20264;-70
2021/12/15 09:38:10;;;;;;;;;;;;;;;27.24;14.92;99934.03;5033581;28;19961;-70
2021/12/15 09:40:35;;;;;;;;;;;;;;;27.27;14.93;99933.38;5034359;28;19917;-71
2021/12/15 09:43:03;;;;;;;;;;;;;;;27.25;15.12;99924.66;5035807;28;19939;-70
2021/12/15 10:06:46;;;;;;;;;;;;;;;27.28;15.07;99883.72;5033950;28;19917;-69
2021/12/15 10:12:20;;;;;;;;;;;;;;;27.31;15.05;99883.09;5033601;28;19971;-69
2021/12/15 10:17:42;;;;;;;;;;;;;;;27.42;15.13;99880.91;5033405;28;19936;-71
2021/12/15 10:20:07;;;;;;;;;;;;;;;27.37;15.12;99869.25;5032483;28;19917;-72
2021/12/15 10:22:44;;;;;;;;;;;;;;;27.39;15.08;99856.88;5034661;28;20024;-72
2021/12/15 10:25:20;;;;;;;;;;;;;;;27.37;15.40;99845.38;5056504;28;19924;-71
2021/12/15 10:27:46;;;;;;;;;;;;;;;27.43;15.04;99849.63;5058135;28;19917;-72
2021/12/15 10:30:12;;;;;;;;;;;;;;;27.47;14.98;99845.09;5055190;28;19917;-71
2021/12/15 10:32:38;;;;;;;;;;;;;;;27.47;15.07;99839.63;5056863;28;20015;-71
2021/12/15 10:35:05;;;;;;;;;;;;;;;27.60;14.98;99834.38;5056509;28;19952;-70
2021/12/15 10:37:30;;;;;;;;;;;;;;;27.56;15.06;99830.63;5057414;28;19916;-69
2021/12/15 10:40:09;;;;;;;;;;;;;;;27.54;15.03;99822.72;5056717;28;19917;-71
2021/12/15 10:42:34;;;;;;;;;;;;;;;27.49;15.21;99818.19;5055026;28;20043;-70
2021/12/15 10:45:06;;;;;;;;;;;;;;;27.49;15.26;99812.69;5056534;28;19956;-71
2021/12/15 10:47:31;;;;;;;;;;;;;;;27.58;15.21;99812.75;5056382;28;19920;-70
2021/12/15 10:49:56;;;;;;;;;;;;;;;27.56;15.43;99819.66;5054719;28;20256;-71
2021/12/15 10:52:22;;;;;;;;;;;;;;;27.62;15.35;99818.41;5056058;28;19917;-71
2021/12/15 10:54:49;;;;;;;;;;;;;;;27.67;15.18;99832.78;5056295;28;20062;-72
2021/12/15 10:57:19;;;;;;;;;;;;;;;27.68;15.12;99825.34;5056642;28;19974;-71
2021/12/15 10:59:48;;;;;;;;;;;;;;;27.65;15.29;99817.78;5056745;28;19970;-71
2021/12/15 11:02:21;;;;;;;;;;;;;;;27.55;15.38;99818.84;5056668;28;20321;-71
2021/12/15 11:04:50;;;;;;;;;;;;;;;27.63;15.42;99814.53;5056418;28;19935;-71
2021/12/15 11:07:16;;;;;;;;;;;;;;;27.57;15.69;99811.09;5056394;28;19920;-71
2021/12/15 11:10:08;;;;;;;;;;;;;;;27.58;15.55;99818.22;5056177;28;19933;-71
2021/12/15 11:12:40;;;;;;;;;;;;;;;27.61;15.58;99827.75;5014278;28;20005;-70
2021/12/15 11:15:08;;;;;;;;;;;;;;;27.65;15.39;99818.59;5014132;28;19993;-72
2021/12/15 11:17:34;;;;;;;;;;;;;;;27.57;15.81;99805.63;5014059;28;19925;-73
2021/12/15 11:20:02;;;;;;;;;;;;;;;27.64;15.82;99805.16;4997882;28;20020;-72
2021/12/15 11:22:38;;;;;;;;;;;;;;;27.54;15.75;99790.63;5014382;28;19921;-72
2021/12/15 11:25:09;;;;;;;;;;;;;;;27.56;15.91;99793.00;5014043;28;19918;-72
2021/12/15 11:27:35;;;;;;;;;;;;;;;27.58;16.09;99774.31;5013630;28;19965;-71
2021/12/15 11:30:00;;;;;;;;;;;;;;;27.51;16.18;99784.91;5013718;28;19971;-69
2021/12/15 11:32:36;;;;;;;;;;;;;;;27.57;16.09;99782.88;5013546;28;19928;-69
2021/12/15 11:35:02;;;;;;;;;;;;;;;27.63;16.04;99784.31;5012946;28;19921;-71
2021/12/15 11:37:46;;;;;;;;;;;;;;;27.66;16.11;99780.94;5013440;28;20430;-71
2021/12/15 11:40:11;;;;;;;;;;;;;;;27.65;16.11;99769.19;5013933;28;19971;-71
2021/12/15 11:42:40;;;;;;;;;;;;;;;27.68;16.01;99765.81;5013310;28;19917;-72
2021/12/15 11:45:06;;;;;;;;;;;;;;;27.64;16.12;99772.22;5013777;28;19917;-74
2021/12/15 11:47:33;;;;;;;;;;;;;;;27.71;16.04;99759.66;5013286;28;19921;-71
2021/12/15 11:50:05;;;;;;;;;;;;;;;27.75;16.10;99750.78;5029406;28;19917;-71
2021/12/15 11:52:35;;;;;;;;;;;;;;;27.61;16.20;99740.72;5034573;28;19928;-71
2021/12/15 11:55:01;;;;;;;;;;;;;;;27.67;16.16;99735.94;5035488;28;20004;-71
2021/12/15 11:57:27;;;;;;;;;;;;;;;27.65;16.27;99729.94;5035158;28;19939;-71
2021/12/15 11:59:53;;;;;;;;;;;;;;;27.69;16.25;99734.47;5034003;28;19967;-71
2021/12/15 12:02:20;;;;;;;;;;;;;;;27.72;16.13;99719.31;5034990;28;20413;-71
2021/12/15 12:04:46;;;;;;;;;;;;;;;27.73;16.16;99704.44;5034921;28;19971;-71
2021/12/15 12:07:22;;;;;;;;;;;;;;;27.75;16.28;99707.66;5035366;28;19925;-71
2021/12/15 12:09:49;;;;;;;;;;;;;;;27.79;16.16;99713.34;5034628;28;20015;-71
2021/12/15 12:12:17;;;;;;;;;;;;;;;27.79;15.95;99703.16;5033990;28;19924;-71
2021/12/15 12:14:48;;;;;;;;;;;;;;;27.77;16.28;99699.13;5033954;28;19917;-71
2021/12/15 12:17:14;;;;;;;;;;;;;;;27.77;16.17;99694.44;5034538;28;19975;-71
2021/12/15 12:19:44;;;;;;;;;;;;;;;27.76;16.28;99703.81;5035326;28;19917;-71
2021/12/15 12:22:10;;;;;;;;;;;;;;;27.84;16.24;99697.53;5035468;28;19967;-71
2021/12/15 12:24:36;;;;;;;;;;;;;;;27.84;16.30;99694.78;5050035;28;19917;-71
2021/12/15 12:27:02;;;;;;;;;;;;;;;27.90;16.44;99693.47;5053036;28;19917;-71
2021/12/15 12:29:27;;;;;;;;;;;;;;;27.94;16.19;99696.47;5053035;28;19924;-70
2021/12/15 12:31:52;;;;;;;;;;;;;;;27.91;16.13;99700.63;5054254;28;19917;-71
2021/12/15 12:34:18;;;;;;;;;;;;;;;27.77;16.48;99688.97;5053813;28;20209;-70
2021/12/15 12:36:44;;;;;;;;;;;;;;;27.90;16.42;99693.47;5056263;28;19924;-70
2021/12/15 12:39:10;;;;;;;;;;;;;;;27.96;16.37;99698.84;5052935;28;20366;-70
2021/12/15 12:41:40;;;;;;;;;;;;;;;27.97;16.27;99692.25;5053681;28;19917;-70
2021/12/15 12:44:06;;;;;;;;;;;;;;;27.85;16.38;99690.88;5053872;28;20375;-71
2021/12/15 12:46:38;;;;;;;;;;;;;;;27.87;16.50;99683.16;5054527;28;19921;-70
2021/12/15 13:00:04;;;;;;;;;;;;;;;27.79;16.56;99670.22;5054303;28;19959;-71
2021/12/15 13:02:40;;;;;;;;;;;;;;;27.77;16.50;99668.91;5053969;28;20268;-71
2021/12/15 13:05:07;;;;;;;;;;;;;;;27.76;16.56;99659.88;5054193;28;19917;-71
2021/12/15 13:07:48;;;;;;;;;;;;;;;27.84;16.47;99669.28;5053995;28;19920;-70
2021/12/15 13:10:14;;;;;;;;;;;;;;;27.87;16.33;99672.19;5052511;28;20303;-71
2021/12/15 13:12:47;;;;;;;;;;;;;;;27.92;16.38;99679.47;5054083;28;20003;-71
2021/12/15 13:15:12;;;;;;;;;;;;;;;27.90;16.52;99671.53;5054059;28;20354;-71
2021/12/15 13:17:41;;;;;;;;;;;;;;;27.91;16.42;99661.38;5052530;28;19921;-70
2021/12/15 13:20:21;;;;;;;;;;;;;;;27.92;16.50;99663.00;5053050;28;19917;-70
2021/12/15 13:23:03;;;;;;;;;;;;;;;27.87;16.47;99650.22;5054566;28;19916;-71
2021/12/15 13:31:03;;;;;;;;;;;;;;;27.88;16.63;99646.31;5034819;28;19943;-72
2021/12/15 13:33:31;;;;;;;;;;;;;;;27.84;16.61;99648.09;5034435;28;19984;-73
2021/12/15 13:35:57;;;;;;;;;;;;;;;27.93;16.58;99647.34;5035085;28;20028;-72
2021/12/15 13:38:35;;;;;;;;;;;;;;;27.91;16.54;99648.47;5034173;28;20382;-73
2021/12/15 13:41:06;;;;;;;;;;;;;;;27.94;16.46;99636.03;5034318;28;19917;-73
2021/12/15 13:43:39;;;;;;;;;;;;;;;27.94;16.56;99633.31;5049394;28;19932;-73
2021/12/15 13:46:05;;;;;;;;;;;;;;;27.89;16.48;99631.47;5034193;28;19921;-73
2021/12/15 13:48:49;;;;;;;;;;;;;;;27.84;16.52;99628.09;5037056;28;20318;-74
2021/12/15 13:51:14;;;;;;;;;;;;;;;27.80;16.55;99627.91;5033954;28;19963;-73
2021/12/15 13:53:39;;;;;;;;;;;;;;;27.79;16.80;99629.03;5034023;28;20260;-74
2021/12/15 13:56:05;;;;;;;;;;;;;;;27.78;16.72;99630.16;5033924;28;19921;-73
2021/12/15 13:58:30;;;;;;;;;;;;;;;27.77;16.69;99620.34;5036003;28;20011;-71
2021/12/15 14:00:56;;;;;;;;;;;;;;;27.76;16.75;99615.97;5038522;28;19917;-71
2021/12/15 14:03:29;;;;;;;;;;;;;;;27.75;16.54;99606.09;5038092;28;19921;-71
2021/12/15 14:06:04;;;;;;;;;;;;;;;27.73;16.79;99605.63;5037607;28;19921;-71
2021/12/15 14:08:31;;;;;;;;;;;;;;;27.74;16.66;99612.72;5037474;28;20008;-74